Christiansted, VI

3:21 PM AST on July 23, 2016 (GMT -0400)
Richmond Power Plant | | Change Station

Elev 39 ft 17.75 °N, 64.71 °W | Updated 4 seconds ago

Scattered Clouds
Scattered Clouds
84.5 °F
Feels Like 91 °F
N
13.1
Wind Variable Wind from East
Gusts 18.7 mph

Today
High -- | Low -- °F
--% Chance of Precip.
Yesterday
High -- | Low -- °F
Precip. -- in
Pressure 29.98 in
Visibility 10.0 miles
Clouds Scattered Clouds 2500 ft
Scattered Clouds 3500 ft
Heat Index 91 °F
Dew Point 73 °F
Humidity 68%
Rainfall 0.02 in
Snow Depth Not available.
5:54 AM 6:55 PM
Waning Gibbous, 83% visible
METAR TISX 231853Z 06009KT 10SM SCT025 SCT035 29/23 A2998 RMK AO2 SLP151 T02940233
Pressure 29.98 in
Visibility 10.0 miles
Clouds Scattered Clouds 2500 ft
Scattered Clouds 3500 ft
Heat Index 91 °F
Dew Point 73 °F
Humidity 68%
Rainfall 0.02 in
Snow Depth Not available.
5:54 AM 6:55 PM
Waning Gibbous, 83% visible
METAR TISX 231853Z 06009KT 10SM SCT025 SCT035 29/23 A2998 RMK AO2 SLP151 T02940233

10-Day Weather Forecast

Almanac

Astronomy

Jul. 23, 2016 Rise Set
Actual Time
Civil Twilight
Nautical Twilight
Astronomical Twilight
Moon
Length of Visible Light
Length of Day
Tomorrow will be .
, % of the Moon is Illuminated

Today's Extremes

State Highs State Lows

Community

WunderPhotos

Upload Photos

1,926,905 photos uploaded!

WunderBlog® & News

Nearby

Air Quality

  Air Quality AQ Index Pollutant
Not available.

Snow Depth

Station Depth Elevation

Earthquake Activity

City Distance Mag. Time & Date
Minimum magnitude displayed is 2.5.

Coastal Water Temperatures

Place Temperature

Stations

Nearby Weather Stations

Station Location Temp. Windchill Dew Point Humidity Wind Precip. Elev Updated Type
                   

Watches & Warnings

There are currently no watches in effect.